Time;durP1;ratioP1;P1;durP2;ratioP2;P2;SDS_P1;SDS_P2;PMS_P1;PMS_P2;Temp;Humidity;BMP_temperature;BMP_pressure;BME280_temperature;BME280_humidity;BME280_pressure;Samples;Min_cycle;Max_cycle;Signal;HPM_P1;HPM_P2
2022/06/18 00:00:24;;;;;;;9.13;1.70;;;;;;;20.07;96.90;101476.63;6114592;23;20447;-96
2022/06/18 00:03:21;;;;;;;7.93;1.90;;;;;;;20.16;97.18;101486.28;6113891;23;20416;-96
2022/06/18 05:49:21;;;;;;;11.57;2.70;;;;;;;18.50;100.00;101392.59;6102080;23;20418;-96
2022/06/18 05:52:38;;;;;;;8.83;2.40;;;;;;;18.57;100.00;101401.69;6030077;23;20417;-96
2022/06/18 05:55:41;;;;;;;12.00;2.97;;;;;;;18.54;100.00;101400.22;6080375;23;20390;-96
2022/06/18 05:58:08;;;;;;;12.13;3.07;;;;;;;;;;6051962;23;20522;-96
2022/06/18 06:00:56;;;;;;;9.00;2.30;;;;;;;;;;6054077;23;20402;-95
2022/06/18 06:03:56;;;;;;;14.10;3.07;;;;;;;;;;6122723;23;20887;-95
2022/06/18 06:13:18;;;;;;;11.73;2.73;;;;;;;;;;6161393;23;20356;-96
2022/06/18 06:15:55;;;;;;;12.93;3.07;;;;;;;;;;6160758;23;20989;-95
2022/06/18 06:18:26;;;;;;;16.13;3.97;;;;;;;;;;6136719;23;20436;-94
2022/06/18 06:20:54;;;;;;;18.30;3.83;;;;;;;;;;6135315;23;20415;-95
2022/06/18 06:23:31;;;;;;;13.47;3.10;;;;;;;;;;6134594;23;20431;-95
2022/06/18 06:26:02;;;;;;;25.50;4.30;;;;;;;;;;6134722;23;20419;-95
2022/06/18 06:28:36;;;;;;;12.57;2.80;;;;;;;;;;6159334;23;20411;-95
2022/06/18 06:35:02;;;;;;;27.93;5.17;;;;;;;;;;6161340;23;20361;-94
2022/06/18 06:37:36;;;;;;;56.73;4.47;;;;;;;;;;6158908;23;20470;-94
2022/06/18 06:40:07;;;;;;;37.67;4.33;;;;;;;;;;6135106;23;20412;-93
2022/06/18 06:45:40;;;;;;;12.83;3.13;;;;;;;;;;6160868;23;20365;-94
2022/06/18 06:48:20;;;;;;;11.87;3.03;;;;;;;;;;6134827;23;20405;-94
2022/06/18 06:50:50;;;;;;;14.60;3.13;;;;;;;;;;6134129;23;20411;-87
2022/06/18 06:53:18;;;;;;;8.77;2.50;;;;;;;;;;6133261;23;20405;-87
2022/06/18 06:58:35;;;;;;;8.50;2.70;;;;;;;;;;6164498;23;20475;-86
2022/06/18 07:01:03;;;;;;;14.40;2.13;;;;;;;;;;6159466;23;20400;-87
2022/06/18 07:03:31;;;;;;;6.60;1.87;;;;;;;;;;6159829;23;20400;-86
2022/06/18 07:05:59;;;;;;;17.20;3.77;;;;;;;;;;6160013;23;20491;-86
2022/06/18 07:08:26;;;;;;;10.57;1.90;;;;;;;;;;6135827;23;20483;-86
2022/06/18 07:10:55;;;;;;;10.03;1.80;;;;;;;;;;6160401;23;20442;-86
2022/06/18 07:13:28;;;;;;;7.97;1.60;;;;;;;;;;6138967;23;20424;-86
2022/06/18 07:15:55;;;;;;;7.63;1.70;;;;;;;;;;6160709;23;20396;-86
2022/06/18 07:18:24;;;;;;;4.07;1.63;;;;;;;;;;6160461;23;20435;-85
2022/06/18 07:20:51;;;;;;;4.03;1.10;;;;;;;;;;6160880;23;20435;-85
2022/06/18 07:23:18;;;;;;;4.73;1.67;;;;;;;;;;6160915;23;20395;-86
2022/06/18 07:25:46;;;;;;;6.33;1.40;;;;;;;;;;6186961;23;20418;-86
2022/06/18 07:28:13;;;;;;;11.83;1.73;;;;;;;;;;6160972;23;20403;-86
2022/06/18 07:30:40;;;;;;;6.87;1.13;;;;;;;;;;6161510;23;20389;-87
2022/06/18 07:33:09;;;;;;;7.53;1.23;;;;;;;;;;6160076;23;20401;-86
2022/06/18 07:35:38;;;;;;;6.60;1.60;;;;;;;;;;6160509;23;20403;-85
2022/06/18 07:38:07;;;;;;;12.23;1.23;;;;;;;;;;6136689;23;20841;-86
2022/06/18 07:40:44;;;;;;;5.13;1.13;;;;;;;;;;6161851;23;20859;-86
2022/06/18 07:43:25;;;;;;;2.50;1.07;;;;;;;;;;6136252;23;20399;-86
2022/06/18 07:45:53;;;;;;;7.57;1.40;;;;;;;;;;6160120;23;20399;-86
2022/06/18 07:48:21;;;;;;;5.20;1.10;;;;;;;;;;6160526;23;20400;-86
2022/06/18 07:50:48;;;;;;;3.47;1.07;;;;;;;;;;6136582;23;20439;-87
2022/06/18 07:53:16;;;;;;;5.73;1.10;;;;;;;;;;6162184;23;20511;-87
2022/06/18 07:55:45;;;;;;;3.13;1.13;;;;;;;;;;6138065;23;20747;-87
2022/06/18 07:58:14;;;;;;;6.43;1.57;;;;;;;;;;6162717;23;20480;-87
2022/06/18 08:00:43;;;;;;;9.97;1.00;;;;;;;;;;6136842;23;20407;-87
2022/06/18 08:03:12;;;;;;;5.23;1.40;;;;;;;;;;6136739;23;20388;-87
2022/06/18 08:05:41;;;;;;;5.23;1.20;;;;;;;;;;6136040;23;20479;-87
2022/06/18 08:08:08;;;;;;;5.23;0.90;;;;;;;;;;6186850;23;20439;-87
2022/06/18 08:10:56;;;;;;;5.03;1.20;;;;;;;;;;6144468;23;20403;-87
2022/06/18 08:13:24;;;;;;;6.33;1.13;;;;;;;;;;6160322;23;20703;-88
2022/06/18 08:15:52;;;;;;;7.23;1.30;;;;;;;;;;6136517;23;20399;-87
2022/06/18 08:18:21;;;;;;;6.97;1.30;;;;;;;;;;6186710;23;20439;-87
2022/06/18 08:21:00;;;;;;;5.70;1.27;;;;;;;;;;6139791;23;20399;-87
2022/06/18 08:23:28;;;;;;;9.37;2.10;;;;;;;;;;6160631;23;20392;-87
2022/06/18 08:25:55;;;;;;;5.40;1.40;;;;;;;;;;6186522;23;20941;-87
2022/06/18 08:28:23;;;;;;;13.60;2.20;;;;;;;;;;6186388;23;20392;-85
2022/06/18 08:30:51;;;;;;;10.37;1.50;;;;;;;;;;6136444;23;20962;-87
2022/06/18 08:33:19;;;;;;;8.63;1.23;;;;;;;;;;6161458;23;20392;-86
2022/06/18 08:35:47;;;;;;;5.90;2.00;;;;;;;;;;6161640;23;20389;-86
2022/06/18 08:38:15;;;;;;;6.37;1.30;;;;;;;;;;6136208;23;20440;-87
2022/06/18 08:40:45;;;;;;;4.73;1.30;;;;;;;;;;6136071;23;20466;-87
2022/06/18 08:43:17;;;;;;;6.83;1.60;;;;;;;;;;6159915;23;20400;-87
2022/06/18 08:45:48;;;;;;;4.97;1.00;;;;;;;;;;6136233;23;20491;-86
2022/06/18 08:48:19;;;;;;;7.13;1.17;;;;;;;;;;6160276;23;20396;-86
2022/06/18 08:50:47;;;;;;;1.90;0.57;;;;;;;;;;6160614;23;20414;-87
2022/06/18 08:53:18;;;;;;;3.63;0.97;;;;;;;;;;6160387;23;20427;-87
2022/06/18 08:56:01;;;;;;;5.60;1.20;;;;;;;;;;6160634;23;20388;-86
2022/06/18 08:58:36;;;;;;;3.70;0.80;;;;;;;;;;6154958;23;20518;-86
2022/06/18 09:01:05;;;;;;;5.07;1.03;;;;;;;;;;6155499;23;20468;-86
2022/06/18 09:03:33;;;;;;;5.50;1.57;;;;;;;;;;6130711;23;20905;-86
2022/06/18 09:06:01;;;;;;;3.90;0.87;;;;;;;;;;6154904;23;20397;-87
2022/06/18 09:08:29;;;;;;;3.10;1.20;;;;;;;;;;6155338;23;20841;-87
2022/06/18 09:10:59;;;;;;;8.13;1.10;;;;;;;;;;6155046;23;20389;-86
2022/06/18 09:13:29;;;;;;;4.30;0.83;;;;;;;;;;6156877;23;20448;-87
2022/06/18 09:15:57;;;;;;;3.80;1.00;;;;;;;;;;6130808;23;20411;-84
2022/06/18 09:18:26;;;;;;;5.73;1.00;;;;;;;;;;6131186;23;20484;-87
2022/06/18 09:21:03;;;;;;;4.30;0.60;;;;;;;;;;6154848;23;20404;-86
2022/06/18 10:09:13;;;;;;;7.53;3.80;;;;;;;;;;6204410;22;20438;-86
2022/06/18 10:11:41;;;;;;;6.20;1.80;;;;;;;;;;6159427;23;20400;-87
2022/06/18 10:14:12;;;;;;;6.47;1.50;;;;;;;;;;6136137;23;20388;-87
2022/06/18 10:16:54;;;;;;;4.07;1.17;;;;;;;;;;6135619;23;20388;-87
2022/06/18 10:19:43;;;;;;;7.73;1.20;;;;;;;;;;6159981;23;20754;-87
2022/06/18 10:22:16;;;;;;;3.97;1.03;;;;;;;;;;6116337;23;20400;-87
2022/06/18 10:24:53;;;;;;;5.83;0.80;;;;;;;;;;6185930;23;20404;-86
2022/06/18 10:27:30;;;;;;;7.40;1.27;;;;;;;;;;6185146;23;20629;-86
2022/06/18 10:30:27;;;;;;;4.50;1.13;;;;;;;;;;6186440;23;20435;-86
2022/06/18 10:33:04;;;;;;;6.17;0.80;;;;;;;;;;6181767;23;20400;-86
2022/06/18 10:35:53;;;;;;;2.93;0.63;;;;;;;;;;6161677;23;20395;-86
2022/06/18 10:38:20;;;;;;;7.67;1.13;;;;;;;;;;6187608;23;20849;-87
2022/06/18 10:41:03;;;;;;;3.83;0.70;;;;;;;;;;6162152;23;20407;-87
2022/06/18 10:43:42;;;;;;;2.50;0.73;;;;;;;;;;6188210;23;20781;-86
2022/06/18 10:46:11;;;;;;;5.63;0.93;;;;;;;;;;6136867;23;20399;-87
2022/06/18 10:48:42;;;;;;;9.50;1.20;;;;;;;;;;6161124;23;20403;-85
2022/06/18 10:51:20;;;;;;;2.57;0.90;;;;;;;;;;6136992;23;20438;-87
2022/06/18 10:53:54;;;;;;;4.27;1.10;;;;;;;;;;6161844;23;20391;-87
2022/06/18 10:56:25;;;;;;;9.77;2.90;;;;;;;;;;6161608;23;20480;-85
2022/06/18 10:58:56;;;;;;;8.17;1.33;;;;;;;;;;6137849;23;20964;-87
2022/06/18 11:01:27;;;;;;;8.33;1.30;;;;;;;;;;6138067;23;20404;-85
2022/06/18 11:03:58;;;;;;;3.50;1.17;;;;;;;;;;6137198;23;20396;-86
2022/06/18 11:06:27;;;;;;;5.90;1.90;;;;;;;;;;6161635;23;20440;-86
2022/06/18 11:08:59;;;;;;;5.93;1.60;;;;;;;;;;6132974;23;20424;-86
2022/06/18 11:11:27;;;;;;;5.90;1.13;;;;;;;;;;6131480;23;20737;-87
2022/06/18 11:13:55;;;;;;;2.20;0.60;;;;;;;;;;6155838;23;20487;-86
2022/06/18 11:16:44;;;;;;;3.33;1.00;;;;;;;;;;6157395;23;20408;-86
2022/06/18 11:19:20;;;;;;;4.63;0.80;;;;;;;;;;6157236;23;20971;-86
2022/06/18 11:21:49;;;;;;;3.97;1.27;;;;;;;;;;6155529;23;20471;-86
2022/06/18 11:24:22;;;;;;;2.83;0.80;;;;;;;;;;6156044;23;20404;-86
2022/06/18 11:26:49;;;;;;;5.87;0.77;;;;;;;;;;6132320;23;20758;-87
2022/06/18 11:29:21;;;;;;;4.47;1.00;;;;;;;;;;6156493;23;20444;-86
2022/06/18 11:31:49;;;;;;;1.93;0.50;;;;;;;;;;6131657;23;20489;-85
2022/06/18 11:34:24;;;;;;;3.20;0.70;;;;;;;;;;6132085;23;20390;-85
2022/06/18 11:36:54;;;;;;;3.93;0.60;;;;;;;;;;6156251;23;20385;-86
2022/06/18 11:39:32;;;;;;;7.33;0.97;;;;;;;;;;6155649;23;20444;-85
2022/06/18 11:42:20;;;;;;;4.63;0.93;;;;;;;;;;6155155;23;20405;-86
2022/06/18 11:44:50;;;;;;;3.57;0.70;;;;;;;;;;6147019;23;20416;-87
2022/06/18 11:47:23;;;;;;;3.83;1.33;;;;;;;;;;6154709;23;20433;-87
2022/06/18 11:50:01;;;;;;;4.27;1.67;;;;;;;;;;6155237;23;20463;-88
2022/06/18 11:52:35;;;;;;;5.20;1.40;;;;;;;;;;6131724;23;20409;-87
2022/06/18 11:55:15;;;;;;;4.50;1.00;;;;;;;;;;6155722;23;20460;-87
2022/06/18 11:57:43;;;;;;;4.60;1.17;;;;;;;;;;6130946;23;20425;-87
2022/06/18 12:00:18;;;;;;;2.27;0.70;;;;;;;;;;6157295;23;20433;-86
2022/06/18 12:02:48;;;;;;;4.93;0.77;;;;;;;;;;6154965;23;20405;-88
2022/06/18 12:05:42;;;;;;;2.63;1.00;;;;;;;;;;6155752;23;20391;-87
2022/06/18 12:08:10;;;;;;;6.10;0.90;;;;;;;;;;6154506;23;20409;-87
2022/06/18 12:10:47;;;;;;;2.07;0.77;;;;;;;;;;6161139;23;20391;-86
2022/06/18 12:13:24;;;;;;;4.20;1.33;;;;;;;;;;6136633;23;20941;-86
2022/06/18 12:15:52;;;;;;;7.07;0.87;;;;;;;;;;6161175;23;20400;-86
2022/06/18 12:18:40;;;;;;;2.83;1.07;;;;;;;;;;6161253;23;20510;-86
2022/06/18 12:21:11;;;;;;;6.83;0.77;;;;;;;;;;6186466;23;20410;-86
2022/06/18 12:23:42;;;;;;;1.70;0.80;;;;;;;;;;6136030;23;20399;-86
2022/06/18 12:26:12;;;;;;;6.10;1.17;;;;;;;;;;6161506;23;20388;-86
2022/06/18 12:28:40;;;;;;;8.20;1.57;;;;;;;;;;6161429;23;20388;-87
2022/06/18 12:31:11;;;;;;;4.40;1.13;;;;;;;;;;6160761;23;20396;-85
2022/06/18 12:33:59;;;;;;;3.40;0.80;;;;;;;;;;6187156;23;20388;-86
2022/06/18 12:36:29;;;;;;;3.40;0.93;;;;;;;;;;6136425;23;20494;-86
2022/06/18 12:38:59;;;;;;;3.43;1.00;;;;;;;;;;6161110;23;20440;-86
2022/06/18 12:41:43;;;;;;;2.60;0.87;;;;;;;;;;6186762;23;20388;-86
2022/06/18 12:44:26;;;;;;;2.83;1.00;;;;;;;;;;6185699;23;20410;-86
2022/06/18 12:47:19;;;;;;;4.30;1.00;;;;;;;;;;6161885;23;20462;-86
2022/06/18 12:49:57;;;;;;;1.90;0.60;;;;;;;;;;6161334;23;20392;-86
2022/06/18 12:52:27;;;;;;;2.60;0.80;;;;;;;;;;6136773;23;20871;-86
2022/06/18 12:55:02;;;;;;;1.67;0.73;;;;;;;;;;6161300;23;20395;-86
2022/06/18 12:57:52;;;;;;;3.07;0.90;;;;;;;;;;6164037;23;20462;-87
2022/06/18 13:00:35;;;;;;;3.30;0.90;;;;;;;;;;6160403;23;20491;-86
2022/06/18 13:03:21;;;;;;;3.03;0.43;;;;;;;;;;6213951;23;20423;-87
2022/06/18 13:05:50;;;;;;;3.23;0.83;;;;;;;;;;6189622;23;20388;-84
2022/06/18 13:08:24;;;;;;;2.50;0.87;;;;;;;;;;6187963;23;20468;-87
2022/06/18 13:11:01;;;;;;;4.00;1.20;;;;;;;;;;6189187;23;20384;-86
2022/06/18 13:13:38;;;;;;;3.63;1.07;;;;;;;;;;6188814;23;20384;-87
2022/06/18 13:16:11;;;;;;;4.27;0.87;;;;;;;;;;6189101;23;20403;-87
2022/06/18 13:18:46;;;;;;;7.67;1.00;;;;;;;;;;6188095;23;20432;-85
2022/06/18 13:21:14;;;;;;;2.73;0.67;;;;;;;;;;6179805;23;20454;-86
2022/06/18 13:30:01;;;;;;;5.03;0.60;;;;;;;;;;6205527;23;20350;-87
2022/06/18 13:33:04;;;;;;;6.40;0.90;;;;;;;;;;6152898;23;20476;-87
2022/06/18 13:39:10;;;;;;;2.97;0.93;;;;;;;;;;6200194;23;20435;-86
2022/06/18 13:48:24;;;;;;;2.27;0.50;;;;;;;;;;6186751;23;20434;-87
2022/06/18 13:50:55;;;;;;;2.10;0.50;;;;;;;;;;6186816;23;20388;-87
2022/06/18 13:53:28;;;;;;;2.40;0.70;;;;;;;;;;6135636;23;20396;-87
2022/06/18 13:55:55;;;;;;;3.53;0.80;;;;;;;;;;6135861;23;20465;-87
2022/06/18 13:58:24;;;;;;;4.17;0.67;;;;;;;;;;6135291;23;20400;-86
2022/06/18 14:01:04;;;;;;;2.30;0.70;;;;;;;;;;6136705;23;20420;-87
2022/06/18 14:03:38;;;;;;;4.27;0.80;;;;;;;;;;6160957;23;20952;-87
2022/06/18 14:06:06;;;;;;;1.97;0.60;;;;;;;;;;6160634;23;20862;-86
2022/06/18 14:08:35;;;;;;;3.80;0.50;;;;;;;;;;6132246;23;20426;-87
2022/06/18 14:11:04;;;;;;;4.40;0.80;;;;;;;;;;6134342;23;20405;-87
2022/06/18 14:13:32;;;;;;;3.03;0.80;;;;;;;;;;6157123;23;20396;-87
2022/06/18 14:16:04;;;;;;;4.60;0.83;;;;;;;;;;6156304;23;20405;-87
2022/06/18 14:18:34;;;;;;;2.50;0.73;;;;;;;;;;6133493;23;20391;-87
2022/06/18 14:21:06;;;;;;;3.67;0.73;;;;;;;;;;6132469;23;20477;-86
2022/06/18 14:23:38;;;;;;;5.53;0.63;;;;;;;;;;6132856;23;20404;-87
2022/06/18 14:26:06;;;;;;;2.50;0.60;;;;;;;;;;6155767;23;20400;-87
2022/06/18 14:28:38;;;;;;;3.03;0.50;;;;;;;;;;6156187;23;20476;-86
2022/06/18 14:31:24;;;;;;;4.70;0.60;;;;;;;;;;6131783;23;20407;-86
2022/06/18 15:06:03;;;;;;;4.23;0.50;;;;;;;;;;6149851;23;20399;-87
2022/06/18 15:08:40;;;;;;;4.40;0.93;;;;;;;;;;6155931;23;20436;-87
2022/06/18 15:11:09;;;;;;;5.17;1.00;;;;;;;;;;6156643;23;20389;-86
2022/06/18 15:13:37;;;;;;;3.00;0.60;;;;;;;;;;6132023;23;20709;-86
2022/06/18 15:18:35;;;;;;;4.53;0.73;;;;;;;;;;6157585;23;20447;-86
2022/06/18 15:21:18;;;;;;;5.27;0.93;;;;;;;;;;6132513;23;20432;-85
2022/06/18 15:25:21;;;;;;;3.20;0.50;;;;;;;;;;6156428;23;20404;-86
2022/06/18 15:26:40;;;;;;;3.03;0.57;;;;;;;;;;6148762;23;20920;-87
2022/06/18 15:29:14;;;;;;;2.50;0.70;;;;;;;;;;6156199;23;20393;-87
2022/06/18 15:31:42;;;;;;;1.47;0.40;;;;;;;;;;6155596;23;20407;-87
2022/06/18 15:34:30;;;;;;;4.47;0.60;;;;;;;;;;6158331;23;20408;-86
2022/06/18 15:37:13;;;;;;;2.70;0.70;;;;;;;;;;6131640;23;20400;-85
2022/06/18 15:40:00;;;;;;;2.37;0.60;;;;;;;;;;6155671;23;20444;-86
2022/06/18 15:42:34;;;;;;;2.90;0.37;;;;;;;;;;6131450;23;20424;-86
2022/06/18 15:45:02;;;;;;;8.60;1.00;;;;;;;;;;6157589;23;20759;-87
2022/06/18 15:47:33;;;;;;;3.00;0.63;;;;;;;;;;6131898;23;20732;-86
2022/06/18 15:50:03;;;;;;;2.80;0.60;;;;;;;;;;6155731;23;20942;-87
2022/06/18 15:52:33;;;;;;;1.17;0.40;;;;;;;;;;6132029;23;20758;-87
2022/06/18 15:55:02;;;;;;;2.77;0.40;;;;;;;;;;6133676;23;20400;-87
2022/06/18 15:57:32;;;;;;;3.10;0.83;;;;;;;;;;6133721;23;20389;-87
2022/06/18 16:00:04;;;;;;;3.10;0.80;;;;;;;;;;6132347;23;20947;-86
2022/06/18 16:02:32;;;;;;;3.87;0.60;;;;;;;;;;6131851;23;20432;-86
2022/06/18 16:34:13;;;;;;;10.63;1.33;;;;;;;;;;6207576;22;20761;-87
2022/06/18 16:36:59;;;;;;;4.17;0.50;;;;;;;;;;6137785;23;20415;-87
2022/06/18 16:39:40;;;;;;;2.80;0.80;;;;;;;;;;6160859;23;20471;-87
2022/06/18 16:42:31;;;;;;;5.33;0.50;;;;;;;;;;6160728;23;20393;-87
2022/06/18 16:45:17;;;;;;;2.63;0.53;;;;;;;;;;6175222;23;20412;-87
2022/06/18 16:47:44;;;;;;;3.93;0.60;;;;;;;;;;6185959;23;20464;-86
2022/06/18 16:50:12;;;;;;;3.77;1.20;;;;;;;;;;6159953;23;20739;-88
2022/06/18 16:52:40;;;;;;;4.80;0.57;;;;;;;;;;6160989;23;20395;-86
2022/06/18 16:55:26;;;;;;;3.47;0.60;;;;;;;;;;6160034;23;20408;-87
2022/06/18 16:57:54;;;;;;;8.33;0.80;;;;;;;;;;6160907;23;20435;-87
2022/06/18 17:00:23;;;;;;;6.03;1.30;;;;;;;;;;6136404;23;20467;-87
2022/06/18 17:02:50;;;;;;;4.20;0.67;;;;;;;;;;6136621;23;20447;-87
2022/06/18 17:05:18;;;;;;;8.13;0.70;;;;;;;;;;6160473;23;20858;-87
2022/06/18 17:07:47;;;;;;;9.80;1.50;;;;;;;;;;6163582;23;20400;-87
2022/06/18 17:10:14;;;;;;;3.87;0.60;;;;;;;;;;6137493;23;20887;-86
2022/06/18 17:12:42;;;;;;;4.57;0.77;;;;;;;;;;6162460;23;20400;-87
2022/06/18 17:15:10;;;;;;;11.10;1.37;;;;;;;;;;6141348;23;20399;-89
2022/06/18 17:17:44;;;;;;;3.47;0.70;;;;;;;;;;6165958;23;20427;-88
2022/06/18 17:20:17;;;;;;;9.00;1.13;;;;;;;;;;6164705;23;20446;-86
2022/06/18 17:22:44;;;;;;;2.10;0.73;;;;;;;;;;6138796;23;20388;-88
2022/06/18 17:33:34;;;;;;;11.17;4.60;;;;;;;;;;6166211;23;20432;-86
2022/06/18 17:36:02;;;;;;;10.10;4.40;;;;;;;;;;6137657;23;20389;-88
2022/06/18 17:38:30;;;;;;;3.93;0.80;;;;;;;;;;6160554;23;20724;-88
2022/06/18 17:41:03;;;;;;;5.20;1.27;;;;;;;;;;6135943;23;20774;-87
2022/06/18 17:43:38;;;;;;;4.33;1.10;;;;;;;;;;6136638;23;20697;-88
2022/06/18 17:46:05;;;;;;;4.23;1.00;;;;;;;;;;6135467;23;20765;-88
2022/06/18 17:48:33;;;;;;;3.10;0.63;;;;;;;;;;6160338;23;20384;-88
2022/06/18 17:51:00;;;;;;;4.53;0.70;;;;;;;;;;6135303;23;20393;-87
2022/06/18 17:53:28;;;;;;;4.33;1.10;;;;;;;;;;6159250;23;20903;-88
2022/06/18 17:55:55;;;;;;;5.40;1.00;;;;;;;;;;6135287;23;20400;-88
2022/06/18 17:58:23;;;;;;;5.30;1.20;;;;;;;;;;6135041;23;20486;-88
2022/06/18 18:00:55;;;;;;;7.13;1.00;;;;;;;;;;6137271;23;20970;-88
2022/06/18 18:03:23;;;;;;;10.93;1.43;;;;;;;;;;6184827;23;20736;-87
2022/06/18 18:05:51;;;;;;;6.37;1.37;;;;;;;;;;6136148;23;20412;-88
2022/06/18 18:08:18;;;;;;;6.57;1.33;;;;;;;;;;6159940;23;20781;-87
2022/06/18 18:10:46;;;;;;;5.60;0.97;;;;;;;;;;6164494;23;20722;-88
2022/06/18 18:13:13;;;;;;;6.70;1.30;;;;;;;;;;6137487;23;20446;-87
2022/06/18 18:15:41;;;;;;;5.07;1.23;;;;;;;;;;6136675;23;20721;-88
2022/06/18 18:18:10;;;;;;;4.23;0.80;;;;;;;;;;6136433;23;20387;-87
2022/06/18 18:20:38;;;;;;;3.63;0.70;;;;;;;;;;6160717;23;20416;-87
2022/06/18 18:23:05;;;;;;;6.23;1.23;;;;;;;;;;6135521;23;20941;-87
2022/06/18 18:25:33;;;;;;;5.63;1.20;;;;;;;;;;6135472;23;20432;-87
2022/06/18 18:28:02;;;;;;;6.27;1.30;;;;;;;;;;6135946;23;20400;-87
2022/06/18 18:30:30;;;;;;;4.50;1.10;;;;;;;;;;6135261;23;20400;-88
2022/06/18 18:32:58;;;;;;;4.90;1.00;;;;;;;;;;6135457;23;20385;-87
2022/06/18 18:35:26;;;;;;;7.50;1.10;;;;;;;;;;6105930;23;20405;-87
2022/06/18 18:37:55;;;;;;;7.47;1.07;;;;;;;;;;6107666;23;20436;-86
2022/06/18 18:40:22;;;;;;;9.97;1.00;;;;;;;;;;6107536;23;20520;-86
2022/06/18 18:42:50;;;;;;;7.13;0.90;;;;;;;;;;6156186;23;20389;-86
2022/06/18 18:45:19;;;;;;;5.17;1.10;;;;;;;;;;6106614;23;20451;-86
2022/06/18 18:47:47;;;;;;;8.43;1.23;;;;;;;;;;6106489;23;20656;-86
2022/06/18 18:50:15;;;;;;;6.00;1.30;;;;;;;;;;6129989;23;20404;-86
2022/06/18 18:52:43;;;;;;;6.70;1.23;;;;;;;;;;6130767;23;20389;-87
2022/06/18 18:55:13;;;;;;;5.80;1.77;;;;;;;;;;6108560;23;20416;-87
2022/06/18 18:57:40;;;;;;;4.90;1.00;;;;;;;;;;6107602;23;20404;-86
2022/06/18 19:00:09;;;;;;;6.90;1.30;;;;;;;;;;6107597;23;20491;-86
2022/06/18 19:02:36;;;;;;;6.07;1.40;;;;;;;;;;6131621;23;20828;-86
2022/06/18 19:05:04;;;;;;;4.80;1.07;;;;;;;;;;6107348;23;20407;-87
2022/06/18 19:07:33;;;;;;;7.37;1.37;;;;;;;;;;6131267;23;20483;-85
2022/06/18 19:10:01;;;;;;;9.63;1.50;;;;;;;;;;6107882;23;20385;-84
2022/06/18 19:15:14;;;;;;;8.00;2.00;;;;;;;;;;6135134;23;20463;-85
2022/06/18 19:17:43;;;;;;;7.23;2.07;;;;;;;;;;6107267;23;20910;-86
2022/06/18 19:20:11;;;;;;;8.53;1.70;;;;;;;;;;6131661;23;20440;-86
2022/06/18 19:22:39;;;;;;;7.53;1.50;;;;;;;;;;6107735;23;20385;-86
2022/06/18 19:25:08;;;;;;;9.20;1.23;;;;;;;;;;6107049;23;20464;-87
2022/06/18 19:27:36;;;;;;;7.60;1.23;;;;;;;;;;6130620;23;20415;-88
2022/06/18 19:30:04;;;;;;;9.20;1.43;;;;;;;;;;6107525;23;20398;-87
2022/06/18 19:32:32;;;;;;;7.97;2.13;;;;;;;;;;6107773;23;20401;-86
2022/06/18 19:35:00;;;;;;;13.50;1.83;;;;;;;;;;6182139;23;20899;-85
2022/06/18 19:37:29;;;;;;;6.30;1.50;;;;;;;;;;6160173;23;20404;-86
2022/06/18 19:39:57;;;;;;;7.50;1.27;;;;;;;;;;6160241;23;20432;-86
2022/06/18 19:42:26;;;;;;;6.73;2.03;;;;;;;;;;6160368;23;20495;-88
2022/06/18 19:44:53;;;;;;;5.87;1.30;;;;;;;;;;6136220;23;20879;-85
2022/06/18 19:47:23;;;;;;;9.70;1.90;;;;;;;;;;6136086;23;20424;-86
2022/06/18 19:49:50;;;;;;;7.40;1.93;;;;;;;;;;6186243;23;20404;-85
2022/06/18 19:52:18;;;;;;;13.10;1.80;;;;;;;;;;6160416;23;20903;-86
2022/06/18 19:55:01;;;;;;;7.70;2.07;;;;;;;;;;6142117;23;20492;-86
2022/06/18 19:57:29;;;;;;;8.40;1.50;;;;;;;;;;6160624;23;20950;-85
2022/06/18 19:59:57;;;;;;;15.00;2.17;;;;;;;;;;6136084;23;20851;-85
2022/06/18 20:02:25;;;;;;;11.57;2.47;;;;;;;;;;6161020;23;20391;-86
2022/06/18 20:04:56;;;;;;;7.40;1.83;;;;;;;;;;6136783;23;20970;-86
2022/06/18 20:07:24;;;;;;;6.63;2.00;;;;;;;;;;6185959;23;20404;-86
2022/06/18 20:09:51;;;;;;;7.63;1.60;;;;;;;;;;6160192;23;20396;-86
2022/06/18 20:12:20;;;;;;;9.40;2.13;;;;;;;;;;6160540;23;20461;-85
2022/06/18 20:14:50;;;;;;;6.40;1.77;;;;;;;;;;6186331;23;20476;-86
2022/06/18 20:17:17;;;;;;;10.40;1.93;;;;;;;;;;6185730;23;20399;-86
2022/06/18 20:19:45;;;;;;;7.73;1.77;;;;;;;;;;6160658;23;20407;-86
2022/06/18 20:22:15;;;;;;;12.30;1.67;;;;;;;;;;6136230;23;20452;-87
2022/06/18 20:24:44;;;;;;;9.40;2.30;;;;;;;;;;6137441;23;20407;-86
2022/06/18 20:27:14;;;;;;;9.20;2.00;;;;;;;;;;6136376;23;20798;-85
2022/06/18 20:29:42;;;;;;;7.97;1.80;;;;;;;;;;6160918;23;20381;-86
2022/06/18 20:32:11;;;;;;;11.30;2.00;;;;;;;;;;6136139;23;20714;-86
2022/06/18 20:34:40;;;;;;;12.33;2.17;;;;;;;;;;6186426;23;20444;-87
2022/06/18 20:37:07;;;;;;;9.37;1.97;;;;;;;;;;6135794;23;20396;-87
2022/06/18 20:39:36;;;;;;;12.93;2.40;;;;;;;;;;6167838;23;20369;-87
2022/06/18 20:42:11;;;;;;;15.23;3.00;;;;;;;;;;6172436;23;20439;-87
2022/06/18 20:44:43;;;;;;;4.97;1.60;;;;;;;;;;6152556;23;20400;-87
2022/06/18 20:47:24;;;;;;;10.50;2.23;;;;;;;;;;6187663;23;20400;-87
2022/06/18 20:53:24;;;;;;;13.70;2.53;;;;;;;;;;6198915;23;20355;-86
2022/06/18 20:59:50;;;;;;;10.90;2.07;;;;;;;;;;6204889;23;20367;-86
2022/06/18 21:02:30;;;;;;;16.27;2.17;;;;;;;;;;6190636;23;20424;-86
2022/06/18 21:04:58;;;;;;;8.87;2.20;;;;;;;;;;6164752;23;20407;-87
2022/06/18 21:07:27;;;;;;;8.67;1.87;;;;;;;;;;6170829;23;20451;-88
2022/06/18 21:09:55;;;;;;;8.53;2.10;;;;;;;;;;6186102;23;20468;-88
2022/06/18 21:12:23;;;;;;;17.03;2.30;;;;;;;;;;6146300;23;20403;-86
2022/06/18 21:14:52;;;;;;;14.63;2.30;;;;;;;;;;6151377;23;20392;-86
2022/06/18 21:17:31;;;;;;;16.23;2.00;;;;;;;;;;6147993;23;20411;-86
2022/06/18 21:20:22;;;;;;;15.70;2.33;;;;;;;;;;6194625;23;20432;-87
2022/06/18 21:23:05;;;;;;;15.90;2.20;;;;;;;;;;6175429;23;20404;-87
2022/06/18 21:25:32;;;;;;;9.27;1.73;;;;;;;;;;6136192;23;20414;-87
2022/06/18 21:28:01;;;;;;;14.63;3.20;;;;;;;;;;6135122;23;20891;-87
2022/06/18 21:30:33;;;;;;;12.10;2.00;;;;;;;;;;6164867;23;20463;-85
2022/06/18 21:38:36;;;;;;;10.30;1.87;;;;;;;;;;6177497;23;20438;-87
2022/06/18 21:41:05;;;;;;;11.03;2.10;;;;;;;;;;6157642;23;20443;-87
2022/06/18 21:43:38;;;;;;;8.73;2.40;;;;;;;;;;6175598;23;20419;-87
2022/06/18 21:46:16;;;;;;;12.43;2.30;;;;;;;;;;6205733;23;20383;-88
2022/06/18 21:48:57;;;;;;;13.83;2.00;;;;;;;;;;6204411;23;20483;-87
2022/06/18 21:51:25;;;;;;;16.77;2.20;;;;;;;;;;6136499;23;20728;-85
2022/06/18 21:53:52;;;;;;;15.60;2.10;;;;;;;;;;6186599;23;20396;-85
2022/06/18 21:56:20;;;;;;;18.00;2.67;;;;;;;;;;6159852;23;20416;-82
2022/06/18 21:58:48;;;;;;;7.00;1.73;;;;;;;;;;6160148;23;20460;-85
2022/06/18 22:01:15;;;;;;;8.80;2.47;;;;;;;;;;6160090;23;20791;-84
2022/06/18 22:03:43;;;;;;;14.13;2.60;;;;;;;;;;6198728;23;20890;-86
2022/06/18 22:06:18;;;;;;;13.30;2.77;;;;;;;;;;6178242;23;20415;-86
2022/06/18 22:08:50;;;;;;;19.40;2.73;;;;;;;;;;6154173;23;20422;-87
2022/06/18 22:11:18;;;;;;;14.93;2.27;;;;;;;;;;6176167;23;20400;-86
2022/06/18 22:17:16;;;;;;;15.10;2.47;;;;;;;;;;6167957;23;20375;-86
2022/06/18 22:19:49;;;;;;;16.30;2.77;;;;;;;;;;6161174;23;20400;-87
2022/06/18 22:22:16;;;;;;;11.50;2.63;;;;;;;;;;6134149;23;20443;-87
2022/06/18 22:24:57;;;;;;;12.73;2.30;;;;;;;;;;6164524;23;20380;-86
2022/06/18 22:28:11;;;;;;;15.53;2.93;;;;;;;;;;6209791;23;20395;-87
2022/06/18 22:30:53;;;;;;;10.17;2.57;;;;;;;;;;6095077;23;20395;-86
2022/06/18 22:33:23;;;;;;;15.30;3.13;;;;;;;;;;6142088;23;20464;-86
2022/06/18 22:36:03;;;;;;;19.27;3.57;;;;;;;;;;6160371;23;20356;-87
2022/06/18 22:38:51;;;;;;;10.80;2.50;;;;;;;;;;6166685;23;20467;-87
2022/06/18 22:41:34;;;;;;;19.27;3.53;;;;;;;;;;6170699;23;20439;-86
2022/06/18 22:44:07;;;;;;;13.10;2.73;;;;;;;;;;6162690;23;20778;-85
2022/06/18 22:46:35;;;;;;;11.43;2.47;;;;;;;;;;6137159;23;20400;-86
2022/06/18 22:49:03;;;;;;;15.00;2.13;;;;;;;;;;6164297;23;20404;-86
2022/06/18 22:51:39;;;;;;;20.03;3.07;;;;;;;;;;6172747;23;20423;-85
2022/06/18 22:54:11;;;;;;;7.03;2.10;;;;;;;;;;6160635;23;20407;-86
2022/06/18 22:56:39;;;;;;;12.33;1.83;;;;;;;;;;6161177;23;20494;-85
2022/06/18 22:59:07;;;;;;;13.50;2.27;;;;;;;;;;6187010;23;20400;-84
2022/06/18 23:01:35;;;;;;;9.60;2.30;;;;;;;;;;6186858;23;20993;-85
2022/06/18 23:04:24;;;;;;;8.03;1.80;;;;;;;;;;6190399;23;20400;-85
2022/06/18 23:10:15;;;;;;;18.47;3.57;;;;;;;;;;6193822;23;20355;-87
2022/06/18 23:16:05;;;;;;;14.63;2.57;;;;;;;;;;6194436;23;20351;-86
2022/06/18 23:21:56;;;;;;;14.57;1.80;;;;;;;;;;6196392;23;20430;-86
2022/06/18 23:24:24;;;;;;;10.97;1.87;;;;;;;;;;6144673;23;20406;-87
2022/06/18 23:26:51;;;;;;;9.53;1.83;;;;;;;;;;6164611;23;20401;-85
2022/06/18 23:29:19;;;;;;;5.93;1.90;;;;;;;;;;6164576;23;20471;-86
2022/06/18 23:31:47;;;;;;;4.83;1.10;;;;;;;;;;6165763;23;20384;-86
2022/06/18 23:34:25;;;;;;;11.93;1.60;;;;;;;;;;6159855;23;20409;-85
2022/06/18 23:36:55;;;;;;;11.87;1.93;;;;;;;;;;6160607;23;20381;-85
2022/06/18 23:39:22;;;;;;;9.80;1.80;;;;;;;;;;6184567;23;20470;-86
2022/06/18 23:41:51;;;;;;;8.07;1.50;;;;;;;;;;6184679;23;20421;-86
2022/06/18 23:44:20;;;;;;;8.37;2.10;;;;;;;;;;6183477;23;20452;-86
2022/06/18 23:46:48;;;;;;;9.07;1.80;;;;;;;;;;6156650;23;20401;-86
2022/06/18 23:49:16;;;;;;;9.93;1.57;;;;;;;;;;6132161;23;20400;-86